sensor_id;sensor_type;location;lat;lon;timestamp;P1;durP1;ratioP1;P2;durP2;ratioP2
56401;SDS011;42299;35.160;26.100;2022-10-16T12:11:45;19.52;;;7.72;;
56401;SDS011;42299;35.160;26.100;2022-10-16T12:15:00;15.68;;;6.10;;
56401;SDS011;42299;35.160;26.100;2022-10-16T12:16:23;19.98;;;6.25;;
56401;SDS011;42299;35.160;26.100;2022-10-16T12:17:44;16.25;;;6.03;;
56401;SDS011;42299;35.160;26.100;2022-10-16T12:19:10;15.48;;;6.45;;
56401;SDS011;42299;35.160;26.100;2022-10-16T12:20:34;19.33;;;6.28;;
56401;SDS011;42299;35.160;26.100;2022-10-16T12:21:58;18.58;;;6.10;;
56401;SDS011;42299;35.160;26.100;2022-10-16T12:23:23;17.83;;;6.32;;
56401;SDS011;42299;35.160;26.100;2022-10-16T12:24:46;14.98;;;5.60;;
56401;SDS011;42299;35.160;26.100;2022-10-16T12:26:13;16.58;;;5.82;;
56401;SDS011;42299;35.160;26.100;2022-10-16T12:27:37;20.42;;;5.95;;
56401;SDS011;42299;35.160;26.100;2022-10-16T12:29:10;20.10;;;7.15;;
56401;SDS011;42299;35.160;26.100;2022-10-16T12:30:37;16.42;;;7.05;;
56401;SDS011;42299;35.160;26.100;2022-10-16T12:32:00;14.90;;;5.60;;
56401;SDS011;42299;35.160;26.100;2022-10-16T12:33:25;18.08;;;6.45;;
56401;SDS011;42299;35.160;26.100;2022-10-16T12:34:50;15.18;;;6.57;;
56401;SDS011;42299;35.160;26.100;2022-10-16T12:36:14;18.55;;;6.13;;
56401;SDS011;42299;35.160;26.100;2022-10-16T12:37:48;20.92;;;6.18;;
56401;SDS011;42299;35.160;26.100;2022-10-16T12:39:17;17.15;;;6.30;;
56401;SDS011;42299;35.160;26.100;2022-10-16T12:40:44;17.13;;;6.30;;
56401;SDS011;42299;35.160;26.100;2022-10-16T12:42:22;20.90;;;5.70;;
56401;SDS011;42299;35.160;26.100;2022-10-16T12:43:56;22.85;;;7.38;;
56401;SDS011;42299;35.160;26.100;2022-10-16T12:45:26;19.05;;;6.28;;
56401;SDS011;42299;35.160;26.100;2022-10-16T12:46:49;22.25;;;6.35;;
56401;SDS011;42299;35.160;26.100;2022-10-16T12:48:19;17.05;;;5.80;;
56401;SDS011;42299;35.160;26.100;2022-10-16T12:49:52;14.95;;;6.05;;
56401;SDS011;42299;35.160;26.100;2022-10-16T12:51:21;12.52;;;5.68;;
56401;SDS011;42299;35.160;26.100;2022-10-16T12:52:46;13.18;;;6.43;;
56401;SDS011;42299;35.160;26.100;2022-10-16T12:54:12;22.73;;;7.85;;
56401;SDS011;42299;35.160;26.100;2022-10-16T12:55:42;12.70;;;5.55;;
56401;SDS011;42299;35.160;26.100;2022-10-16T12:57:20;19.27;;;5.65;;
56401;SDS011;42299;35.160;26.100;2022-10-16T12:59:01;18.08;;;5.63;;
56401;SDS011;42299;35.160;26.100;2022-10-16T13:00:32;13.55;;;5.30;;
56401;SDS011;42299;35.160;26.100;2022-10-16T13:02:06;19.30;;;5.72;;
56401;SDS011;42299;35.160;26.100;2022-10-16T13:05:58;15.48;;;6.55;;
56401;SDS011;42299;35.160;26.100;2022-10-16T13:07:35;18.52;;;5.43;;
56401;SDS011;42299;35.160;26.100;2022-10-16T13:09:29;15.88;;;5.28;;
56401;SDS011;42299;35.160;26.100;2022-10-16T13:11:05;16.75;;;5.82;;
56401;SDS011;42299;35.160;26.100;2022-10-16T13:12:41;18.83;;;6.03;;
56401;SDS011;42299;35.160;26.100;2022-10-16T13:14:20;20.63;;;6.05;;
56401;SDS011;42299;35.160;26.100;2022-10-16T13:16:08;20.38;;;5.97;;
56401;SDS011;42299;35.160;26.100;2022-10-16T13:17:41;16.95;;;5.53;;
56401;SDS011;42299;35.160;26.100;2022-10-16T13:19:13;14.13;;;4.55;;
56401;SDS011;42299;35.160;26.100;2022-10-16T13:20:51;16.10;;;5.22;;
56401;SDS011;42299;35.160;26.100;2022-10-16T13:22:24;12.80;;;5.13;;
56401;SDS011;42299;35.160;26.100;2022-10-16T13:23:56;15.10;;;4.53;;
56401;SDS011;42299;35.160;26.100;2022-10-16T13:25:26;13.77;;;5.50;;
56401;SDS011;42299;35.160;26.100;2022-10-16T13:27:00;14.20;;;5.50;;
56401;SDS011;42299;35.160;26.100;2022-10-16T13:28:30;17.08;;;6.28;;
56401;SDS011;42299;35.160;26.100;2022-10-16T13:30:00;20.77;;;5.32;;
56401;SDS011;42299;35.160;26.100;2022-10-16T13:31:24;16.85;;;5.45;;
56401;SDS011;42299;35.160;26.100;2022-10-16T13:32:48;15.25;;;5.70;;
56401;SDS011;42299;35.160;26.100;2022-10-16T13:34:12;14.90;;;5.63;;
56401;SDS011;42299;35.160;26.100;2022-10-16T13:35:45;14.10;;;5.35;;
56401;SDS011;42299;35.160;26.100;2022-10-16T13:37:15;12.32;;;4.55;;
56401;SDS011;42299;35.160;26.100;2022-10-16T13:38:39;15.18;;;4.80;;
56401;SDS011;42299;35.160;26.100;2022-10-16T13:40:04;12.70;;;4.50;;
56401;SDS011;42299;35.160;26.100;2022-10-16T13:41:40;13.32;;;4.90;;
56401;SDS011;42299;35.160;26.100;2022-10-16T13:43:03;21.58;;;5.22;;
56401;SDS011;42299;35.160;26.100;2022-10-16T13:44:26;17.33;;;4.80;;
56401;SDS011;42299;35.160;26.100;2022-10-16T13:46:00;10.90;;;4.10;;
56401;SDS011;42299;35.160;26.100;2022-10-16T13:47:26;13.77;;;4.82;;
56401;SDS011;42299;35.160;26.100;2022-10-16T13:48:56;12.93;;;5.50;;
56401;SDS011;42299;35.160;26.100;2022-10-16T13:50:18;11.25;;;4.65;;
56401;SDS011;42299;35.160;26.100;2022-10-16T13:51:40;15.73;;;4.60;;
56401;SDS011;42299;35.160;26.100;2022-10-16T13:53:04;12.38;;;4.85;;
56401;SDS011;42299;35.160;26.100;2022-10-16T13:54:26;19.90;;;4.82;;
56401;SDS011;42299;35.160;26.100;2022-10-16T13:55:50;11.00;;;4.38;;
56401;SDS011;42299;35.160;26.100;2022-10-16T13:57:12;12.63;;;4.22;;
56401;SDS011;42299;35.160;26.100;2022-10-16T13:58:36;16.40;;;4.97;;
56401;SDS011;42299;35.160;26.100;2022-10-16T13:59:58;13.60;;;4.93;;
56401;SDS011;42299;35.160;26.100;2022-10-16T14:01:23;14.48;;;4.80;;
56401;SDS011;42299;35.160;26.100;2022-10-16T14:02:50;22.80;;;6.22;;
56401;SDS011;42299;35.160;26.100;2022-10-16T14:04:16;13.85;;;4.65;;
56401;SDS011;42299;35.160;26.100;2022-10-16T14:05:42;12.05;;;4.50;;
56401;SDS011;42299;35.160;26.100;2022-10-16T14:07:11;13.38;;;3.83;;
56401;SDS011;42299;35.160;26.100;2022-10-16T14:08:42;15.40;;;5.13;;
56401;SDS011;42299;35.160;26.100;2022-10-16T14:10:07;12.07;;;4.70;;
56401;SDS011;42299;35.160;26.100;2022-10-16T14:11:44;15.20;;;5.05;;
56401;SDS011;42299;35.160;26.100;2022-10-16T14:13:12;12.13;;;5.20;;
56401;SDS011;42299;35.160;26.100;2022-10-16T14:14:40;13.40;;;4.78;;
56401;SDS011;42299;35.160;26.100;2022-10-16T14:16:06;16.83;;;5.38;;
56401;SDS011;42299;35.160;26.100;2022-10-16T14:17:32;14.77;;;4.55;;
56401;SDS011;42299;35.160;26.100;2022-10-16T14:18:57;18.67;;;4.85;;
56401;SDS011;42299;35.160;26.100;2022-10-16T14:20:20;23.50;;;4.95;;
56401;SDS011;42299;35.160;26.100;2022-10-16T14:21:47;18.13;;;4.93;;
56401;SDS011;42299;35.160;26.100;2022-10-16T14:23:18;17.15;;;5.10;;
56401;SDS011;42299;35.160;26.100;2022-10-16T14:24:43;22.88;;;6.32;;
56401;SDS011;42299;35.160;26.100;2022-10-16T14:26:06;15.85;;;5.10;;
56401;SDS011;42299;35.160;26.100;2022-10-16T14:27:39;13.88;;;5.85;;
56401;SDS011;42299;35.160;26.100;2022-10-16T14:29:04;18.88;;;5.38;;
56401;SDS011;42299;35.160;26.100;2022-10-16T14:30:33;15.43;;;4.70;;
56401;SDS011;42299;35.160;26.100;2022-10-16T14:31:57;17.65;;;5.25;;
56401;SDS011;42299;35.160;26.100;2022-10-16T14:33:24;16.42;;;5.22;;
56401;SDS011;42299;35.160;26.100;2022-10-16T14:34:53;20.77;;;5.35;;
56401;SDS011;42299;35.160;26.100;2022-10-16T14:36:16;20.83;;;5.95;;
56401;SDS011;42299;35.160;26.100;2022-10-16T14:37:41;15.65;;;5.47;;
56401;SDS011;42299;35.160;26.100;2022-10-16T14:39:04;11.48;;;5.00;;
56401;SDS011;42299;35.160;26.100;2022-10-16T14:40:28;20.92;;;6.63;;
56401;SDS011;42299;35.160;26.100;2022-10-16T14:41:54;14.88;;;5.85;;
56401;SDS011;42299;35.160;26.100;2022-10-16T14:43:21;15.68;;;5.97;;
56401;SDS011;42299;35.160;26.100;2022-10-16T14:44:48;20.95;;;6.57;;
56401;SDS011;42299;35.160;26.100;2022-10-16T14:46:13;20.38;;;5.30;;
56401;SDS011;42299;35.160;26.100;2022-10-16T14:47:45;26.13;;;7.03;;
56401;SDS011;42299;35.160;26.100;2022-10-16T14:49:15;16.40;;;5.90;;
56401;SDS011;42299;35.160;26.100;2022-10-16T14:50:40;15.27;;;5.50;;
56401;SDS011;42299;35.160;26.100;2022-10-16T14:52:05;17.90;;;6.72;;
56401;SDS011;42299;35.160;26.100;2022-10-16T14:53:32;15.13;;;6.63;;
56401;SDS011;42299;35.160;26.100;2022-10-16T14:54:54;14.25;;;5.53;;
56401;SDS011;42299;35.160;26.100;2022-10-16T14:56:17;18.88;;;5.93;;
56401;SDS011;42299;35.160;26.100;2022-10-16T14:57:42;17.83;;;5.47;;
56401;SDS011;42299;35.160;26.100;2022-10-16T14:59:07;18.52;;;6.22;;
56401;SDS011;42299;35.160;26.100;2022-10-16T15:00:35;18.35;;;5.57;;
56401;SDS011;42299;35.160;26.100;2022-10-16T15:01:57;18.88;;;6.40;;
56401;SDS011;42299;35.160;26.100;2022-10-16T15:03:20;18.20;;;5.60;;
56401;SDS011;42299;35.160;26.100;2022-10-16T15:04:45;17.00;;;5.97;;
56401;SDS011;42299;35.160;26.100;2022-10-16T15:06:09;16.38;;;5.60;;
56401;SDS011;42299;35.160;26.100;2022-10-16T15:07:33;19.17;;;6.10;;
56401;SDS011;42299;35.160;26.100;2022-10-16T15:08:55;15.73;;;5.68;;
56401;SDS011;42299;35.160;26.100;2022-10-16T15:10:18;18.10;;;5.45;;
56401;SDS011;42299;35.160;26.100;2022-10-16T15:11:43;16.95;;;5.88;;
56401;SDS011;42299;35.160;26.100;2022-10-16T15:13:08;20.25;;;5.93;;
56401;SDS011;42299;35.160;26.100;2022-10-16T15:14:33;14.75;;;5.32;;
56401;SDS011;42299;35.160;26.100;2022-10-16T15:15:56;16.75;;;4.90;;
56401;SDS011;42299;35.160;26.100;2022-10-16T15:17:18;17.08;;;5.55;;
56401;SDS011;42299;35.160;26.100;2022-10-16T15:18:41;19.27;;;6.75;;
56401;SDS011;42299;35.160;26.100;2022-10-16T15:20:06;12.25;;;5.25;;
56401;SDS011;42299;35.160;26.100;2022-10-16T15:21:30;17.83;;;5.75;;
56401;SDS011;42299;35.160;26.100;2022-10-16T15:22:53;16.90;;;6.07;;
56401;SDS011;42299;35.160;26.100;2022-10-16T15:24:17;18.13;;;7.05;;
56401;SDS011;42299;35.160;26.100;2022-10-16T15:25:41;17.42;;;5.53;;
56401;SDS011;42299;35.160;26.100;2022-10-16T15:27:05;15.40;;;5.32;;
56401;SDS011;42299;35.160;26.100;2022-10-16T15:28:28;14.88;;;5.10;;
56401;SDS011;42299;35.160;26.100;2022-10-16T15:29:51;17.98;;;6.50;;
56401;SDS011;42299;35.160;26.100;2022-10-16T15:31:13;15.00;;;5.88;;
56401;SDS011;42299;35.160;26.100;2022-10-16T15:32:36;18.55;;;6.03;;
56401;SDS011;42299;35.160;26.100;2022-10-16T15:33:58;16.27;;;6.18;;
56401;SDS011;42299;35.160;26.100;2022-10-16T15:35:26;24.00;;;6.68;;
56401;SDS011;42299;35.160;26.100;2022-10-16T15:36:49;18.45;;;6.35;;
56401;SDS011;42299;35.160;26.100;2022-10-16T15:38:12;19.33;;;7.20;;
56401;SDS011;42299;35.160;26.100;2022-10-16T15:39:35;28.75;;;8.15;;
56401;SDS011;42299;35.160;26.100;2022-10-16T15:40:58;20.50;;;7.95;;
56401;SDS011;42299;35.160;26.100;2022-10-16T15:42:21;17.60;;;5.65;;
56401;SDS011;42299;35.160;26.100;2022-10-16T15:43:43;18.75;;;7.95;;
56401;SDS011;42299;35.160;26.100;2022-10-16T15:45:06;16.75;;;5.30;;
56401;SDS011;42299;35.160;26.100;2022-10-16T15:46:29;19.88;;;6.55;;
56401;SDS011;42299;35.160;26.100;2022-10-16T15:47:54;16.23;;;6.15;;
56401;SDS011;42299;35.160;26.100;2022-10-16T15:49:16;21.65;;;6.32;;
56401;SDS011;42299;35.160;26.100;2022-10-16T15:50:41;21.33;;;6.70;;
56401;SDS011;42299;35.160;26.100;2022-10-16T15:52:04;19.27;;;6.40;;
56401;SDS011;42299;35.160;26.100;2022-10-16T15:53:26;18.92;;;7.05;;
56401;SDS011;42299;35.160;26.100;2022-10-16T15:54:49;19.00;;;6.70;;
56401;SDS011;42299;35.160;26.100;2022-10-16T15:56:12;16.58;;;6.18;;
56401;SDS011;42299;35.160;26.100;2022-10-16T15:57:36;17.95;;;7.03;;
56401;SDS011;42299;35.160;26.100;2022-10-16T15:59:01;21.73;;;8.52;;
56401;SDS011;42299;35.160;26.100;2022-10-16T16:00:22;19.65;;;8.15;;
56401;SDS011;42299;35.160;26.100;2022-10-16T16:01:46;15.82;;;8.48;;
56401;SDS011;42299;35.160;26.100;2022-10-16T16:03:10;29.00;;;7.93;;
56401;SDS011;42299;35.160;26.100;2022-10-16T16:04:33;19.23;;;6.13;;
56401;SDS011;42299;35.160;26.100;2022-10-16T16:05:56;19.05;;;6.63;;
56401;SDS011;42299;35.160;26.100;2022-10-16T16:07:18;19.40;;;7.55;;
56401;SDS011;42299;35.160;26.100;2022-10-16T16:08:41;24.85;;;7.53;;
56401;SDS011;42299;35.160;26.100;2022-10-16T16:10:05;23.75;;;7.28;;
56401;SDS011;42299;35.160;26.100;2022-10-16T16:11:30;20.92;;;6.85;;
56401;SDS011;42299;35.160;26.100;2022-10-16T16:12:57;22.33;;;8.23;;
56401;SDS011;42299;35.160;26.100;2022-10-16T16:14:20;20.33;;;7.03;;
56401;SDS011;42299;35.160;26.100;2022-10-16T16:15:47;22.52;;;7.47;;
56401;SDS011;42299;35.160;26.100;2022-10-16T16:17:10;22.70;;;7.03;;
56401;SDS011;42299;35.160;26.100;2022-10-16T16:18:33;22.30;;;7.60;;
56401;SDS011;42299;35.160;26.100;2022-10-16T16:19:57;19.52;;;7.47;;
56401;SDS011;42299;35.160;26.100;2022-10-16T16:21:20;21.15;;;6.93;;
56401;SDS011;42299;35.160;26.100;2022-10-16T16:22:43;22.00;;;6.97;;
56401;SDS011;42299;35.160;26.100;2022-10-16T16:24:05;18.23;;;7.28;;
56401;SDS011;42299;35.160;26.100;2022-10-16T16:25:28;18.50;;;7.68;;
56401;SDS011;42299;35.160;26.100;2022-10-16T16:26:51;22.05;;;8.77;;
56401;SDS011;42299;35.160;26.100;2022-10-16T16:28:13;19.42;;;7.38;;
56401;SDS011;42299;35.160;26.100;2022-10-16T16:29:39;23.73;;;6.82;;
56401;SDS011;42299;35.160;26.100;2022-10-16T16:31:02;28.20;;;7.88;;
56401;SDS011;42299;35.160;26.100;2022-10-16T16:32:25;30.95;;;8.07;;
56401;SDS011;42299;35.160;26.100;2022-10-16T16:33:47;20.27;;;7.57;;
56401;SDS011;42299;35.160;26.100;2022-10-16T16:35:11;24.92;;;8.15;;
56401;SDS011;42299;35.160;26.100;2022-10-16T16:36:35;24.25;;;7.55;;
56401;SDS011;42299;35.160;26.100;2022-10-16T16:37:57;19.33;;;6.63;;
56401;SDS011;42299;35.160;26.100;2022-10-16T16:39:20;23.35;;;7.65;;
56401;SDS011;42299;35.160;26.100;2022-10-16T16:40:43;25.63;;;7.53;;
56401;SDS011;42299;35.160;26.100;2022-10-16T16:42:08;25.67;;;8.20;;
56401;SDS011;42299;35.160;26.100;2022-10-16T16:43:32;21.02;;;6.95;;
56401;SDS011;42299;35.160;26.100;2022-10-16T16:44:53;16.75;;;6.70;;
56401;SDS011;42299;35.160;26.100;2022-10-16T16:46:16;25.30;;;7.90;;
56401;SDS011;42299;35.160;26.100;2022-10-16T16:47:39;21.00;;;7.90;;
56401;SDS011;42299;35.160;26.100;2022-10-16T16:49:02;21.52;;;6.95;;
56401;SDS011;42299;35.160;26.100;2022-10-16T16:50:25;20.17;;;7.10;;
56401;SDS011;42299;35.160;26.100;2022-10-16T16:51:49;23.15;;;7.28;;
56401;SDS011;42299;35.160;26.100;2022-10-16T16:53:11;25.08;;;8.45;;
56401;SDS011;42299;35.160;26.100;2022-10-16T16:54:34;23.30;;;7.93;;
56401;SDS011;42299;35.160;26.100;2022-10-16T16:56:00;21.08;;;7.03;;
56401;SDS011;42299;35.160;26.100;2022-10-16T16:57:26;23.10;;;7.50;;
56401;SDS011;42299;35.160;26.100;2022-10-16T16:58:49;24.23;;;7.50;;
56401;SDS011;42299;35.160;26.100;2022-10-16T17:00:13;21.20;;;6.80;;
56401;SDS011;42299;35.160;26.100;2022-10-16T17:01:35;40.38;;;9.27;;
56401;SDS011;42299;35.160;26.100;2022-10-16T17:02:58;23.15;;;7.55;;
56401;SDS011;42299;35.160;26.100;2022-10-16T17:04:20;21.70;;;7.03;;
56401;SDS011;42299;35.160;26.100;2022-10-16T17:05:42;23.75;;;7.88;;
56401;SDS011;42299;35.160;26.100;2022-10-16T17:07:06;23.70;;;7.47;;
56401;SDS011;42299;35.160;26.100;2022-10-16T17:08:29;25.17;;;6.47;;
56401;SDS011;42299;35.160;26.100;2022-10-16T17:09:51;19.70;;;6.20;;
56401;SDS011;42299;35.160;26.100;2022-10-16T17:11:15;16.83;;;6.40;;
56401;SDS011;42299;35.160;26.100;2022-10-16T17:12:39;19.27;;;5.95;;
56401;SDS011;42299;35.160;26.100;2022-10-16T17:14:02;20.98;;;7.15;;
56401;SDS011;42299;35.160;26.100;2022-10-16T17:15:28;25.08;;;7.88;;
56401;SDS011;42299;35.160;26.100;2022-10-16T17:16:51;19.00;;;7.00;;
56401;SDS011;42299;35.160;26.100;2022-10-16T17:18:14;21.77;;;7.10;;
56401;SDS011;42299;35.160;26.100;2022-10-16T17:19:37;22.08;;;6.25;;
56401;SDS011;42299;35.160;26.100;2022-10-16T17:20:59;18.02;;;5.97;;
56401;SDS011;42299;35.160;26.100;2022-10-16T17:22:24;18.42;;;6.22;;
56401;SDS011;42299;35.160;26.100;2022-10-16T17:23:50;18.77;;;5.93;;
56401;SDS011;42299;35.160;26.100;2022-10-16T17:25:12;22.20;;;6.85;;
56401;SDS011;42299;35.160;26.100;2022-10-16T17:26:35;30.40;;;8.07;;
56401;SDS011;42299;35.160;26.100;2022-10-16T17:28:00;22.58;;;6.38;;
56401;SDS011;42299;35.160;26.100;2022-10-16T17:29:23;24.20;;;5.88;;
56401;SDS011;42299;35.160;26.100;2022-10-16T17:30:45;19.75;;;6.30;;
56401;SDS011;42299;35.160;26.100;2022-10-16T17:32:08;18.92;;;6.93;;
56401;SDS011;42299;35.160;26.100;2022-10-16T17:33:30;17.17;;;7.18;;
56401;SDS011;42299;35.160;26.100;2022-10-16T17:34:52;15.25;;;6.22;;
56401;SDS011;42299;35.160;26.100;2022-10-16T17:36:14;23.08;;;6.20;;
56401;SDS011;42299;35.160;26.100;2022-10-16T17:37:39;17.60;;;6.32;;
56401;SDS011;42299;35.160;26.100;2022-10-16T17:39:03;20.20;;;6.63;;
56401;SDS011;42299;35.160;26.100;2022-10-16T17:40:27;17.15;;;6.18;;
56401;SDS011;42299;35.160;26.100;2022-10-16T17:41:49;17.33;;;6.07;;
56401;SDS011;42299;35.160;26.100;2022-10-16T17:43:13;21.70;;;6.30;;
56401;SDS011;42299;35.160;26.100;2022-10-16T17:44:36;18.05;;;5.65;;
56401;SDS011;42299;35.160;26.100;2022-10-16T17:46:01;24.70;;;6.40;;
56401;SDS011;42299;35.160;26.100;2022-10-16T17:47:23;18.15;;;5.95;;
56401;SDS011;42299;35.160;26.100;2022-10-16T17:48:46;21.63;;;7.25;;
56401;SDS011;42299;35.160;26.100;2022-10-16T17:50:11;20.20;;;7.05;;
56401;SDS011;42299;35.160;26.100;2022-10-16T17:51:34;17.63;;;6.25;;
56401;SDS011;42299;35.160;26.100;2022-10-16T17:52:58;18.27;;;6.47;;
56401;SDS011;42299;35.160;26.100;2022-10-16T17:54:21;20.50;;;6.00;;
56401;SDS011;42299;35.160;26.100;2022-10-16T17:55:44;25.67;;;6.40;;
56401;SDS011;42299;35.160;26.100;2022-10-16T17:57:07;26.10;;;6.95;;
56401;SDS011;42299;35.160;26.100;2022-10-16T17:58:29;21.00;;;6.95;;
56401;SDS011;42299;35.160;26.100;2022-10-16T17:59:52;22.85;;;6.32;;
56401;SDS011;42299;35.160;26.100;2022-10-16T18:01:17;15.60;;;5.85;;
56401;SDS011;42299;35.160;26.100;2022-10-16T18:02:41;16.95;;;6.03;;
56401;SDS011;42299;35.160;26.100;2022-10-16T18:04:04;19.98;;;5.72;;
56401;SDS011;42299;35.160;26.100;2022-10-16T18:05:29;23.48;;;6.45;;
56401;SDS011;42299;35.160;26.100;2022-10-16T18:06:52;18.90;;;6.03;;
56401;SDS011;42299;35.160;26.100;2022-10-16T18:08:17;24.13;;;5.75;;
56401;SDS011;42299;35.160;26.100;2022-10-16T18:09:39;21.67;;;6.18;;
56401;SDS011;42299;35.160;26.100;2022-10-16T18:11:02;19.77;;;6.68;;
56401;SDS011;42299;35.160;26.100;2022-10-16T18:12:24;17.17;;;6.10;;
56401;SDS011;42299;35.160;26.100;2022-10-16T18:13:47;16.73;;;6.13;;
56401;SDS011;42299;35.160;26.100;2022-10-16T18:15:12;15.63;;;5.28;;
56401;SDS011;42299;35.160;26.100;2022-10-16T18:16:33;14.13;;;5.30;;
56401;SDS011;42299;35.160;26.100;2022-10-16T18:17:58;24.27;;;6.82;;
56401;SDS011;42299;35.160;26.100;2022-10-16T18:19:21;18.08;;;6.10;;
56401;SDS011;42299;35.160;26.100;2022-10-16T18:20:54;23.77;;;6.53;;
56401;SDS011;42299;35.160;26.100;2022-10-16T18:23:41;15.68;;;5.78;;
56401;SDS011;42299;35.160;26.100;2022-10-16T18:25:04;21.60;;;6.78;;
56401;SDS011;42299;35.160;26.100;2022-10-16T18:26:27;21.00;;;7.22;;
56401;SDS011;42299;35.160;26.100;2022-10-16T18:27:50;21.73;;;6.43;;
56401;SDS011;42299;35.160;26.100;2022-10-16T18:29:12;24.55;;;6.97;;
56401;SDS011;42299;35.160;26.100;2022-10-16T18:30:35;28.42;;;7.35;;
56401;SDS011;42299;35.160;26.100;2022-10-16T18:31:56;18.33;;;6.07;;
56401;SDS011;42299;35.160;26.100;2022-10-16T18:33:19;23.33;;;7.10;;
56401;SDS011;42299;35.160;26.100;2022-10-16T18:34:40;18.42;;;6.78;;
56401;SDS011;42299;35.160;26.100;2022-10-16T18:36:04;17.40;;;7.20;;
56401;SDS011;42299;35.160;26.100;2022-10-16T18:37:28;13.73;;;6.35;;
56401;SDS011;42299;35.160;26.100;2022-10-16T18:38:52;20.73;;;8.23;;
56401;SDS011;42299;35.160;26.100;2022-10-16T18:40:13;24.02;;;6.90;;
56401;SDS011;42299;35.160;26.100;2022-10-16T18:41:37;23.17;;;7.05;;
56401;SDS011;42299;35.160;26.100;2022-10-16T18:43:01;22.58;;;6.03;;
56401;SDS011;42299;35.160;26.100;2022-10-16T18:44:24;21.77;;;5.85;;
56401;SDS011;42299;35.160;26.100;2022-10-16T18:45:53;21.27;;;7.13;;
56401;SDS011;42299;35.160;26.100;2022-10-16T18:47:17;17.48;;;6.07;;
56401;SDS011;42299;35.160;26.100;2022-10-16T18:48:40;16.35;;;6.03;;
56401;SDS011;42299;35.160;26.100;2022-10-16T18:50:02;21.85;;;7.15;;
56401;SDS011;42299;35.160;26.100;2022-10-16T18:51:26;23.13;;;8.05;;
56401;SDS011;42299;35.160;26.100;2022-10-16T18:52:48;18.15;;;6.70;;
56401;SDS011;42299;35.160;26.100;2022-10-16T18:54:13;22.75;;;6.28;;
56401;SDS011;42299;35.160;26.100;2022-10-16T18:55:35;23.92;;;7.22;;
56401;SDS011;42299;35.160;26.100;2022-10-16T18:56:57;22.05;;;6.13;;
56401;SDS011;42299;35.160;26.100;2022-10-16T18:58:20;21.08;;;6.47;;
56401;SDS011;42299;35.160;26.100;2022-10-16T18:59:42;27.80;;;6.90;;
56401;SDS011;42299;35.160;26.100;2022-10-16T19:01:04;22.17;;;6.82;;
56401;SDS011;42299;35.160;26.100;2022-10-16T19:02:28;26.70;;;7.68;;
56401;SDS011;42299;35.160;26.100;2022-10-16T19:03:52;17.92;;;6.78;;
56401;SDS011;42299;35.160;26.100;2022-10-16T19:05:17;15.88;;;6.88;;
56401;SDS011;42299;35.160;26.100;2022-10-16T19:06:40;18.25;;;5.68;;
56401;SDS011;42299;35.160;26.100;2022-10-16T19:08:03;24.65;;;7.20;;
56401;SDS011;42299;35.160;26.100;2022-10-16T19:09:27;17.02;;;5.95;;
56401;SDS011;42299;35.160;26.100;2022-10-16T19:10:50;22.95;;;6.22;;
56401;SDS011;42299;35.160;26.100;2022-10-16T19:12:12;21.35;;;6.22;;
56401;SDS011;42299;35.160;26.100;2022-10-16T19:13:35;25.30;;;7.18;;
56401;SDS011;42299;35.160;26.100;2022-10-16T19:14:56;18.75;;;5.88;;
56401;SDS011;42299;35.160;26.100;2022-10-16T19:16:20;21.48;;;6.47;;
56401;SDS011;42299;35.160;26.100;2022-10-16T19:17:44;15.30;;;5.68;;
56401;SDS011;42299;35.160;26.100;2022-10-16T19:19:07;17.65;;;5.68;;
56401;SDS011;42299;35.160;26.100;2022-10-16T19:20:33;20.52;;;6.10;;
56401;SDS011;42299;35.160;26.100;2022-10-16T19:21:55;29.98;;;6.47;;
56401;SDS011;42299;35.160;26.100;2022-10-16T19:23:31;27.15;;;7.50;;
56401;SDS011;42299;35.160;26.100;2022-10-16T19:24:55;18.15;;;5.82;;
56401;SDS011;42299;35.160;26.100;2022-10-16T19:26:18;22.15;;;6.30;;
56401;SDS011;42299;35.160;26.100;2022-10-16T19:27:41;19.88;;;5.85;;
56401;SDS011;42299;35.160;26.100;2022-10-16T19:29:04;13.75;;;5.95;;
56401;SDS011;42299;35.160;26.100;2022-10-16T19:30:28;13.13;;;5.53;;
56401;SDS011;42299;35.160;26.100;2022-10-16T19:31:51;20.13;;;6.30;;
56401;SDS011;42299;35.160;26.100;2022-10-16T19:33:14;19.42;;;6.38;;
56401;SDS011;42299;35.160;26.100;2022-10-16T19:34:35;18.83;;;6.05;;
56401;SDS011;42299;35.160;26.100;2022-10-16T19:36:05;19.70;;;6.55;;
56401;SDS011;42299;35.160;26.100;2022-10-16T19:37:28;19.98;;;5.97;;
56401;SDS011;42299;35.160;26.100;2022-10-16T19:38:51;19.98;;;6.00;;
56401;SDS011;42299;35.160;26.100;2022-10-16T19:40:17;14.63;;;5.00;;
56401;SDS011;42299;35.160;26.100;2022-10-16T19:41:40;22.00;;;6.55;;
56401;SDS011;42299;35.160;26.100;2022-10-16T19:43:03;26.27;;;7.50;;
56401;SDS011;42299;35.160;26.100;2022-10-16T19:44:25;27.33;;;6.25;;
56401;SDS011;42299;35.160;26.100;2022-10-16T19:45:48;18.98;;;4.97;;
56401;SDS011;42299;35.160;26.100;2022-10-16T19:47:10;16.95;;;4.55;;
56401;SDS011;42299;35.160;26.100;2022-10-16T19:48:33;24.55;;;5.30;;
56401;SDS011;42299;35.160;26.100;2022-10-16T19:49:56;24.55;;;5.32;;
56401;SDS011;42299;35.160;26.100;2022-10-16T19:51:19;21.55;;;6.22;;
56401;SDS011;42299;35.160;26.100;2022-10-16T19:52:42;17.42;;;5.28;;
56401;SDS011;42299;35.160;26.100;2022-10-16T19:54:05;19.45;;;5.55;;
56401;SDS011;42299;35.160;26.100;2022-10-16T19:55:31;16.25;;;5.85;;
56401;SDS011;42299;35.160;26.100;2022-10-16T19:56:53;20.20;;;5.53;;
56401;SDS011;42299;35.160;26.100;2022-10-16T19:58:18;23.45;;;6.03;;
56401;SDS011;42299;35.160;26.100;2022-10-16T19:59:40;14.00;;;5.07;;
56401;SDS011;42299;35.160;26.100;2022-10-16T20:01:03;17.52;;;5.93;;
56401;SDS011;42299;35.160;26.100;2022-10-16T20:02:26;18.52;;;5.07;;
56401;SDS011;42299;35.160;26.100;2022-10-16T20:03:49;20.92;;;5.63;;
56401;SDS011;42299;35.160;26.100;2022-10-16T20:05:13;16.38;;;5.80;;
56401;SDS011;42299;35.160;26.100;2022-10-16T20:06:35;21.23;;;5.60;;
56401;SDS011;42299;35.160;26.100;2022-10-16T20:08:00;12.43;;;4.45;;
56401;SDS011;42299;35.160;26.100;2022-10-16T20:09:22;15.45;;;4.45;;
56401;SDS011;42299;35.160;26.100;2022-10-16T20:10:50;11.00;;;4.95;;
56401;SDS011;42299;35.160;26.100;2022-10-16T20:12:14;24.85;;;4.97;;
56401;SDS011;42299;35.160;26.100;2022-10-16T20:13:37;19.15;;;6.13;;
56401;SDS011;42299;35.160;26.100;2022-10-16T20:15:00;22.60;;;5.00;;
56401;SDS011;42299;35.160;26.100;2022-10-16T20:16:23;18.98;;;5.72;;
56401;SDS011;42299;35.160;26.100;2022-10-16T20:17:46;16.63;;;5.22;;
56401;SDS011;42299;35.160;26.100;2022-10-16T20:19:09;20.33;;;5.90;;
56401;SDS011;42299;35.160;26.100;2022-10-16T20:20:35;22.58;;;5.50;;
56401;SDS011;42299;35.160;26.100;2022-10-16T20:21:58;19.75;;;5.72;;
56401;SDS011;42299;35.160;26.100;2022-10-16T20:23:21;21.27;;;6.80;;
56401;SDS011;42299;35.160;26.100;2022-10-16T20:24:43;19.40;;;5.47;;
56401;SDS011;42299;35.160;26.100;2022-10-16T20:26:07;18.20;;;4.90;;
56401;SDS011;42299;35.160;26.100;2022-10-16T20:27:30;14.00;;;4.72;;
56401;SDS011;42299;35.160;26.100;2022-10-16T20:28:53;16.83;;;4.30;;
56401;SDS011;42299;35.160;26.100;2022-10-16T20:30:16;20.70;;;5.45;;
56401;SDS011;42299;35.160;26.100;2022-10-16T20:31:39;18.42;;;4.65;;
56401;SDS011;42299;35.160;26.100;2022-10-16T20:33:00;17.92;;;4.57;;